createdAt,value
2022-09-30T00:01:52.826Z,52.38
2022-09-30T00:04:23.698Z,54.47
2022-09-30T00:06:56.189Z,46.67
2022-09-30T00:09:25.227Z,51.42
2022-09-30T00:11:53.666Z,49.15
2022-09-30T00:14:26.125Z,45.33
2022-09-30T00:16:53.700Z,46.85
2022-09-30T00:19:21.816Z,47.88
2022-09-30T00:21:49.591Z,49.75
2022-09-30T00:24:17.350Z,42.90
2022-09-30T00:26:45.512Z,42.08
2022-09-30T00:29:13.158Z,46.65
2022-09-30T00:31:41.276Z,50.83
2022-09-30T00:34:11.682Z,42.95
2022-09-30T00:36:44.734Z,47.05
2022-09-30T00:39:25.051Z,41.83
2022-09-30T00:41:58.731Z,44.33
2022-09-30T00:44:45.918Z,41.53
2022-09-30T00:47:31.659Z,44.70
2022-09-30T00:50:12.509Z,48.90
2022-09-30T00:52:40.849Z,46.47
2022-09-30T00:55:15.548Z,44.60
2022-09-30T00:57:43.376Z,43.70
2022-09-30T01:00:11.418Z,43.05
2022-09-30T01:02:39.031Z,41.72
2022-09-30T01:05:09.621Z,42.38
2022-09-30T01:07:38.305Z,52.33
2022-09-30T01:10:06.282Z,35.80
2022-09-30T01:12:34.120Z,35.95
2022-09-30T01:15:02.883Z,40.60
2022-09-30T01:17:55.190Z,44.22
2022-09-30T01:20:43.864Z,39.97
2022-09-30T01:26:29.741Z,37.75
2022-09-30T01:29:09.446Z,43.60
2022-09-30T01:31:49.967Z,43.13
2022-09-30T01:35:01.265Z,50.00
2022-09-30T01:37:50.348Z,44.60
2022-09-30T01:40:32.865Z,48.90
2022-09-30T01:43:17.008Z,48.33
2022-09-30T01:45:56.022Z,47.83
2022-09-30T01:48:27.425Z,50.80
2022-09-30T01:50:59.066Z,50.00
2022-09-30T01:53:33.389Z,45.05
2022-09-30T01:56:18.051Z,48.80
2022-09-30T01:58:46.124Z,42.28
2022-09-30T02:01:55.349Z,49.40
2022-09-30T02:04:41.523Z,41.78
2022-09-30T02:07:14.396Z,43.20
2022-09-30T02:09:50.182Z,43.00
2022-09-30T02:12:24.599Z,44.58
2022-09-30T02:15:26.088Z,57.88
2022-09-30T02:20:34.321Z,49.53
2022-09-30T02:23:12.948Z,48.47
2022-09-30T02:25:45.647Z,47.92
2022-09-30T02:28:27.597Z,45.42
2022-09-30T02:31:00.184Z,45.38
2022-09-30T02:34:14.015Z,43.50
2022-09-30T02:36:50.723Z,49.70
2022-09-30T02:39:41.211Z,39.20
2022-09-30T02:42:33.177Z,45.33
2022-09-30T02:45:08.916Z,36.88
2022-09-30T02:47:57.485Z,45.45
2022-09-30T02:50:36.657Z,65.85
2022-09-30T02:53:07.509Z,60.72
2022-09-30T02:55:57.429Z,56.13
2022-09-30T02:58:26.339Z,54.53
2022-09-30T03:00:54.927Z,41.50
2022-09-30T03:03:54.035Z,47.95
2022-09-30T03:06:22.357Z,30.65
2022-09-30T03:08:51.692Z,30.30
2022-09-30T03:11:26.392Z,31.35
2022-09-30T03:14:13.133Z,37.20
2022-09-30T03:16:59.195Z,31.52
2022-09-30T03:19:39.265Z,31.75
2022-09-30T03:22:28.597Z,32.38
2022-09-30T03:25:23.945Z,27.92
2022-09-30T03:28:30.409Z,46.33
2022-09-30T03:31:23.362Z,45.13
2022-09-30T03:34:19.240Z,43.75
2022-09-30T03:37:12.533Z,41.80
2022-09-30T03:40:02.943Z,41.92
2022-09-30T03:42:46.012Z,39.63
2022-09-30T03:45:20.662Z,54.28
2022-09-30T03:47:54.356Z,50.03
2022-09-30T03:50:24.791Z,44.38
2022-09-30T03:52:53.020Z,52.10
2022-09-30T03:55:22.605Z,49.85
2022-09-30T03:57:51.450Z,53.65
2022-09-30T04:00:19.534Z,44.47
2022-09-30T04:02:53.582Z,43.78
2022-09-30T04:05:23.853Z,47.85
2022-09-30T04:07:51.696Z,53.17
2022-09-30T04:10:19.503Z,62.25
2022-09-30T04:12:47.551Z,33.25
2022-09-30T04:15:15.226Z,37.72
2022-09-30T04:17:43.570Z,45.80
2022-09-30T04:20:12.971Z,41.75
2022-09-30T04:22:40.722Z,64.00
2022-09-30T04:25:09.041Z,36.78
2022-09-30T04:27:37.404Z,31.85
2022-09-30T04:30:05.932Z,24.20
2022-09-30T04:32:33.784Z,22.90
2022-09-30T04:35:01.964Z,32.55
2022-09-30T04:37:29.677Z,31.95
2022-09-30T04:39:57.870Z,29.15
2022-09-30T04:42:25.883Z,29.60
2022-09-30T04:44:53.621Z,27.27
2022-09-30T04:47:21.607Z,26.73
2022-09-30T04:49:49.567Z,33.63
2022-09-30T04:52:17.180Z,48.90
2022-09-30T04:54:44.836Z,52.25
2022-09-30T04:57:14.222Z,44.25
2022-09-30T04:59:41.907Z,53.65
2022-09-30T05:02:09.984Z,53.85
2022-09-30T05:04:38.047Z,55.83
2022-09-30T05:07:09.178Z,57.15
2022-09-30T05:09:41.549Z,88.00
2022-09-30T05:12:09.802Z,61.38
2022-09-30T05:14:38.319Z,80.95
2022-09-30T05:17:05.966Z,80.13
2022-09-30T05:19:36.569Z,75.70
2022-09-30T05:22:04.195Z,74.40
2022-09-30T05:24:32.029Z,79.72
2022-09-30T05:26:59.965Z,82.25
2022-09-30T05:29:27.626Z,89.60
2022-09-30T05:31:58.462Z,109.40
2022-09-30T05:34:26.542Z,128.68
2022-09-30T05:36:54.218Z,124.18
2022-09-30T05:39:21.833Z,111.07
2022-09-30T05:41:51.087Z,108.68
2022-09-30T05:44:19.454Z,92.28
2022-09-30T05:46:49.441Z,101.07
2022-09-30T05:49:17.537Z,100.53
2022-09-30T05:51:45.579Z,101.55
2022-09-30T05:54:13.314Z,96.75
2022-09-30T05:56:41.205Z,91.85
2022-09-30T05:59:11.608Z,85.70
2022-09-30T06:01:39.346Z,90.53
2022-09-30T06:04:07.293Z,131.52
2022-09-30T06:06:34.919Z,139.55
2022-09-30T06:09:02.681Z,116.20
2022-09-30T06:11:31.782Z,122.30
2022-09-30T06:13:59.472Z,135.90
2022-09-30T06:16:27.333Z,128.82
2022-09-30T06:18:55.615Z,132.15
2022-09-30T06:21:23.670Z,156.63
2022-09-30T06:23:51.578Z,143.75
2022-09-30T06:26:19.804Z,144.75
2022-09-30T06:28:47.512Z,142.95
2022-09-30T06:31:15.490Z,152.98
2022-09-30T06:33:43.839Z,157.63
2022-09-30T06:36:11.622Z,156.02
2022-09-30T06:38:40.142Z,161.60
2022-09-30T06:41:10.622Z,151.07
2022-09-30T06:43:46.039Z,137.70
2022-09-30T06:46:30.510Z,123.00
2022-09-30T06:49:14.569Z,124.90
2022-09-30T06:51:42.947Z,119.63
2022-09-30T06:54:13.789Z,137.90
2022-09-30T06:56:42.052Z,150.75
2022-09-30T06:59:11.961Z,117.43
2022-09-30T07:01:39.722Z,107.22
2022-09-30T07:04:12.999Z,84.05
2022-09-30T07:06:48.254Z,81.97
2022-09-30T07:09:19.281Z,92.43
2022-09-30T07:11:49.874Z,97.90
2022-09-30T07:14:22.504Z,86.82
2022-09-30T07:17:18.793Z,87.13
2022-09-30T07:19:46.499Z,78.18
2022-09-30T07:22:32.129Z,89.72
2022-09-30T07:25:04.734Z,70.13
2022-09-30T07:27:42.672Z,71.20
2022-09-30T07:30:27.477Z,59.35
2022-09-30T07:35:33.613Z,61.30
2022-09-30T07:38:02.135Z,54.88
2022-09-30T07:40:31.563Z,67.95
2022-09-30T07:43:00.697Z,65.40
2022-09-30T07:45:31.186Z,56.13
2022-09-30T07:47:59.768Z,53.22
2022-09-30T07:50:29.987Z,54.13
2022-09-30T07:53:03.942Z,45.50
2022-09-30T07:55:52.750Z,48.85
2022-09-30T07:58:20.330Z,55.45
2022-09-30T08:00:52.046Z,52.33
2022-09-30T08:03:20.102Z,53.70
2022-09-30T08:05:48.770Z,55.10
2022-09-30T08:08:18.090Z,51.05
2022-09-30T08:10:48.298Z,43.50
2022-09-30T08:13:17.283Z,34.55
2022-09-30T08:15:45.909Z,43.72
2022-09-30T08:18:16.705Z,48.92
2022-09-30T08:20:44.553Z,49.92
2022-09-30T08:23:12.159Z,46.67
2022-09-30T08:25:40.093Z,44.90
2022-09-30T08:28:07.810Z,45.53
2022-09-30T08:30:37.203Z,42.38
2022-09-30T08:33:06.104Z,40.15
2022-09-30T08:35:36.834Z,33.05
2022-09-30T08:38:04.560Z,34.63
2022-09-30T08:40:39.446Z,39.55
2022-09-30T08:43:39.026Z,37.75
2022-09-30T08:46:13.168Z,34.08
2022-09-30T08:49:21.698Z,36.03
2022-09-30T08:51:52.169Z,31.30
2022-09-30T08:54:29.923Z,24.07
2022-09-30T08:56:59.108Z,30.23
2022-09-30T08:59:37.279Z,37.47
2022-09-30T09:02:27.956Z,30.48
2022-09-30T09:05:00.811Z,28.20
2022-09-30T09:07:49.351Z,25.70
2022-09-30T09:10:27.071Z,25.13
2022-09-30T09:13:23.609Z,23.73
2022-09-30T09:16:21.587Z,20.33
2022-09-30T09:19:06.325Z,22.23
2022-09-30T09:21:54.772Z,25.63
2022-09-30T09:24:51.170Z,22.95
2022-09-30T09:27:38.502Z,20.20
2022-09-30T09:30:12.569Z,21.20
2022-09-30T09:32:40.710Z,55.47
2022-09-30T09:38:44.646Z,55.55
2022-09-30T09:42:10.223Z,24.00
2022-09-30T09:44:49.549Z,19.30
2022-09-30T09:47:21.692Z,16.50
2022-09-30T09:50:04.687Z,15.02
2022-09-30T09:52:58.080Z,32.15
2022-09-30T09:55:25.716Z,24.17
2022-09-30T09:58:14.134Z,24.10
2022-09-30T10:00:51.480Z,18.77
2022-09-30T10:03:24.388Z,25.58
2022-09-30T10:06:18.172Z,27.98
2022-09-30T10:08:55.655Z,17.88
2022-09-30T10:11:25.961Z,18.08
2022-09-30T10:13:58.489Z,22.48
2022-09-30T10:16:35.597Z,17.45
2022-09-30T10:19:16.761Z,18.27
2022-09-30T10:21:44.506Z,19.17
2022-09-30T10:24:43.529Z,17.75
2022-09-30T10:27:49.405Z,16.55
2022-09-30T10:30:38.795Z,18.58
2022-09-30T10:33:27.060Z,18.02
2022-09-30T10:36:09.756Z,17.98
2022-09-30T10:38:46.003Z,18.00
2022-09-30T10:41:14.715Z,20.90
2022-09-30T10:43:52.443Z,17.10
2022-09-30T10:46:57.615Z,19.38
2022-09-30T10:49:38.246Z,16.70
2022-09-30T10:52:18.816Z,30.83
2022-09-30T10:57:38.915Z,17.80
2022-09-30T11:00:14.879Z,19.38
2022-09-30T11:03:05.872Z,17.88
2022-09-30T11:05:49.831Z,18.73
2022-09-30T11:08:49.088Z,18.20
2022-09-30T11:11:24.491Z,16.55
2022-09-30T11:14:14.509Z,26.00
2022-09-30T11:17:37.703Z,18.27
2022-09-30T11:20:34.177Z,21.30
2022-09-30T11:23:17.053Z,19.73
2022-09-30T11:26:09.851Z,20.48
2022-09-30T11:28:57.093Z,20.25
2022-09-30T11:31:43.449Z,22.15
2022-09-30T11:34:35.440Z,18.77
2022-09-30T11:37:16.566Z,18.73
2022-09-30T11:40:12.480Z,16.67
2022-09-30T11:42:56.673Z,14.35
2022-09-30T11:45:46.403Z,17.55
2022-09-30T11:48:48.792Z,20.00
2022-09-30T11:51:18.632Z,21.25
2022-09-30T11:54:05.872Z,21.08
2022-09-30T11:56:45.910Z,24.05
2022-09-30T11:59:48.850Z,39.10
2022-09-30T12:02:48.974Z,19.85
2022-09-30T12:05:35.843Z,43.60
2022-09-30T12:08:27.016Z,43.35
2022-09-30T12:11:10.141Z,18.95
2022-09-30T12:13:42.317Z,17.63
2022-09-30T12:16:20.140Z,16.25
2022-09-30T12:18:56.362Z,18.38
2022-09-30T12:21:35.732Z,22.25
2022-09-30T12:24:24.085Z,20.40
2022-09-30T12:26:55.134Z,17.08
2022-09-30T12:29:55.381Z,21.80
2022-09-30T12:32:40.772Z,20.15
2022-09-30T12:35:23.760Z,16.35
2022-09-30T12:38:30.989Z,16.45
2022-09-30T12:41:25.780Z,17.73
2022-09-30T12:44:33.138Z,16.95
2022-09-30T12:47:06.664Z,14.07
2022-09-30T12:49:38.227Z,18.52
2022-09-30T12:52:13.017Z,17.83
2022-09-30T12:54:48.601Z,18.45
2022-09-30T12:57:33.164Z,15.88
2022-09-30T13:00:13.873Z,17.00
2022-09-30T13:02:47.418Z,16.77
2022-09-30T13:05:29.721Z,17.25
2022-09-30T13:08:06.607Z,16.95
2022-09-30T13:10:39.578Z,19.42
2022-09-30T13:13:29.331Z,21.00
2022-09-30T13:16:04.779Z,18.60
2022-09-30T13:18:32.599Z,23.55
2022-09-30T13:21:07.997Z,22.30
2022-09-30T13:23:55.668Z,20.55
2022-09-30T13:26:23.850Z,22.83
2022-09-30T13:28:53.958Z,24.00
2022-09-30T13:31:23.904Z,20.48
2022-09-30T13:34:10.076Z,27.90
2022-09-30T13:36:53.054Z,25.00
2022-09-30T13:39:46.129Z,21.85
2022-09-30T13:42:18.079Z,21.20
2022-09-30T13:45:23.560Z,24.63
2022-09-30T13:48:11.335Z,23.13
2022-09-30T13:50:54.375Z,22.05
2022-09-30T13:54:06.012Z,22.40
2022-09-30T13:57:08.521Z,21.92
2022-09-30T14:00:18.177Z,29.83
2022-09-30T14:03:05.325Z,24.17
2022-09-30T14:05:35.348Z,25.30
2022-09-30T14:27:16.251Z,27.48
2022-09-30T14:30:03.850Z,24.35
2022-09-30T14:32:59.171Z,24.58
2022-09-30T14:36:24.806Z,28.30
2022-09-30T14:39:00.900Z,24.98
2022-09-30T14:41:35.137Z,25.98
2022-09-30T14:44:07.849Z,25.58
2022-09-30T14:46:49.216Z,25.38
2022-09-30T14:49:28.999Z,23.90
2022-09-30T14:52:00.310Z,27.48
2022-09-30T14:54:31.614Z,27.33
2022-09-30T14:57:03.245Z,29.55
2022-09-30T14:59:42.058Z,30.45
2022-09-30T15:02:22.061Z,26.55
2022-09-30T15:04:59.272Z,30.15
2022-09-30T15:07:32.139Z,27.67
2022-09-30T15:10:03.134Z,28.48
2022-09-30T15:12:32.605Z,26.30
2022-09-30T15:15:02.043Z,26.23
2022-09-30T15:17:40.646Z,28.15
2022-09-30T15:20:29.766Z,27.83
2022-09-30T15:23:03.610Z,29.35
2022-09-30T15:25:35.220Z,28.42
2022-09-30T15:28:03.880Z,28.95
2022-09-30T15:30:33.578Z,26.65
2022-09-30T15:33:05.249Z,31.83
2022-09-30T15:35:35.220Z,33.42
2022-09-30T15:38:30.732Z,29.98
2022-09-30T15:41:06.698Z,34.38
2022-09-30T15:43:42.483Z,32.92
2022-09-30T15:46:34.023Z,38.40
2022-09-30T15:49:29.291Z,46.28
2022-09-30T15:52:28.796Z,35.55
2022-09-30T15:55:29.024Z,30.92
2022-09-30T15:58:02.995Z,39.05
2022-09-30T16:00:38.554Z,35.10
2022-09-30T16:03:26.821Z,29.30
2022-09-30T16:06:09.395Z,30.13
2022-09-30T16:08:54.675Z,28.23
2022-09-30T16:11:31.199Z,35.03
2022-09-30T16:14:00.448Z,31.20
2022-09-30T16:16:34.904Z,31.35
2022-09-30T16:19:18.827Z,31.67
2022-09-30T16:21:51.915Z,29.42
2022-09-30T16:24:24.165Z,30.17
2022-09-30T16:26:57.607Z,29.40
2022-09-30T16:29:30.169Z,33.20
2022-09-30T16:31:59.284Z,40.88
2022-09-30T16:34:31.617Z,50.92
2022-09-30T16:37:21.755Z,60.05
2022-09-30T16:39:50.924Z,85.82
2022-09-30T16:42:21.001Z,72.50
2022-09-30T16:44:56.290Z,75.97
2022-09-30T16:47:26.401Z,95.55
2022-09-30T16:49:54.882Z,94.00
2022-09-30T16:52:25.195Z,91.88
2022-09-30T16:54:57.526Z,103.45
2022-09-30T16:57:26.250Z,108.50
2022-09-30T16:59:55.747Z,99.05
2022-09-30T17:02:24.815Z,108.00
2022-09-30T17:04:53.327Z,109.63
2022-09-30T17:07:24.440Z,124.50
2022-09-30T17:09:55.782Z,213.52
2022-09-30T17:12:29.171Z,220.33
2022-09-30T17:15:10.769Z,254.68
2022-09-30T17:20:11.915Z,212.32
2022-09-30T17:22:43.656Z,219.57
2022-09-30T17:25:17.424Z,176.65
2022-09-30T17:27:50.518Z,128.45
2022-09-30T17:30:19.912Z,114.70
2022-09-30T17:32:48.945Z,123.43
2022-09-30T17:35:17.696Z,125.45
2022-09-30T17:37:51.135Z,103.78
2022-09-30T17:40:37.773Z,92.60
2022-09-30T17:43:11.023Z,85.90
2022-09-30T17:45:45.014Z,89.80
2022-09-30T17:48:16.519Z,83.75
2022-09-30T17:50:46.897Z,149.15
2022-09-30T17:55:50.186Z,195.90
2022-09-30T17:58:19.697Z,176.68
2022-09-30T18:00:48.021Z,185.82
2022-09-30T18:03:19.614Z,151.48
2022-09-30T18:05:48.264Z,125.50
2022-09-30T18:08:19.776Z,110.45
2022-09-30T18:10:48.480Z,102.53
2022-09-30T18:13:43.394Z,96.57
2022-09-30T18:16:12.043Z,102.40
2022-09-30T18:18:40.682Z,94.93
2022-09-30T18:23:58.928Z,325.77
2022-09-30T18:26:33.188Z,239.98
2022-09-30T18:29:03.888Z,176.77
2022-09-30T18:31:37.718Z,268.65
2022-09-30T18:34:16.857Z,477.98
2022-09-30T18:36:45.810Z,620.00
2022-09-30T18:39:16.359Z,537.03
2022-09-30T18:41:49.101Z,347.80
2022-09-30T18:44:18.810Z,381.33
2022-09-30T18:46:47.677Z,390.50
2022-09-30T18:49:16.182Z,404.77
2022-09-30T18:51:44.548Z,360.73
2022-09-30T18:54:13.503Z,367.83
2022-09-30T18:56:44.334Z,339.35
2022-09-30T18:59:18.269Z,271.58
2022-09-30T19:01:50.564Z,230.65
2022-09-30T19:04:21.793Z,205.23
2022-09-30T19:06:50.909Z,233.88
2022-09-30T19:09:26.916Z,273.77
2022-09-30T19:11:59.709Z,319.85
2022-09-30T19:14:32.698Z,533.50
2022-09-30T19:17:05.422Z,618.72
2022-09-30T19:19:41.479Z,489.33
2022-09-30T19:22:12.259Z,477.15
2022-09-30T19:24:48.072Z,361.73
2022-09-30T19:27:23.278Z,308.50
2022-09-30T19:29:54.963Z,327.17
2022-09-30T19:32:30.367Z,293.10
2022-09-30T19:35:06.041Z,225.60
2022-09-30T19:37:37.621Z,158.13
2022-09-30T19:40:20.440Z,133.55
2022-09-30T19:42:53.422Z,114.40
2022-09-30T19:45:26.116Z,129.02
2022-09-30T19:48:01.814Z,161.50
2022-09-30T19:50:36.157Z,130.68
2022-09-30T19:53:04.752Z,138.65
2022-09-30T19:55:47.220Z,157.93
2022-09-30T19:58:25.036Z,250.52
2022-09-30T20:00:56.881Z,174.35
2022-09-30T20:03:36.513Z,189.50
2022-09-30T20:06:15.052Z,157.15
2022-09-30T20:08:56.126Z,106.20
2022-09-30T20:14:14.371Z,95.63
2022-09-30T20:16:44.229Z,88.05
2022-09-30T20:19:12.598Z,87.93
2022-09-30T20:21:43.413Z,93.82
2022-09-30T20:24:16.108Z,95.47
2022-09-30T20:27:02.490Z,96.60
2022-09-30T20:29:30.561Z,94.25
2022-09-30T20:32:00.885Z,146.13
2022-09-30T20:34:33.552Z,157.93
2022-09-30T20:37:04.875Z,272.83
2022-09-30T20:39:34.793Z,437.77
2022-09-30T20:44:34.939Z,214.20
2022-09-30T20:47:02.953Z,298.33
2022-09-30T20:49:30.869Z,180.13
2022-09-30T20:52:04.155Z,212.15
2022-09-30T20:54:32.802Z,211.10
2022-09-30T20:57:08.665Z,224.35
2022-09-30T20:59:37.388Z,194.68
2022-09-30T21:02:07.220Z,171.60
2022-09-30T21:04:35.510Z,222.98
2022-09-30T21:07:03.371Z,243.68
2022-09-30T21:09:34.901Z,233.27
2022-09-30T21:12:02.755Z,194.95
2022-09-30T21:14:30.576Z,149.23
2022-09-30T21:16:58.815Z,128.73
2022-09-30T21:19:26.518Z,111.35
2022-09-30T21:21:56.979Z,126.30
2022-09-30T21:24:26.189Z,135.43
2022-09-30T21:26:56.091Z,206.40
2022-09-30T21:29:24.122Z,245.77
2022-09-30T21:31:52.196Z,208.65
2022-09-30T21:34:22.204Z,190.25
2022-09-30T21:36:50.068Z,152.23
2022-09-30T21:39:18.197Z,167.18
2022-09-30T21:41:46.218Z,172.90
2022-09-30T21:44:15.520Z,178.38
2022-09-30T21:46:48.200Z,187.27
2022-09-30T21:49:23.199Z,177.32
2022-09-30T21:51:55.460Z,173.80
2022-09-30T21:54:23.494Z,163.68
2022-09-30T21:56:51.795Z,169.38
2022-09-30T21:59:19.911Z,160.77
2022-09-30T22:01:47.998Z,160.38
2022-09-30T22:04:15.727Z,160.73
2022-09-30T22:06:45.803Z,157.43
2022-09-30T22:09:13.743Z,159.50
2022-09-30T22:11:43.994Z,152.73
2022-09-30T22:14:12.119Z,141.65
2022-09-30T22:16:39.941Z,138.57
2022-09-30T22:19:09.197Z,123.63
2022-09-30T22:21:38.065Z,104.47
2022-09-30T22:24:06.859Z,102.20
2022-09-30T22:26:35.398Z,89.07
2022-09-30T22:29:06.950Z,78.35
2022-09-30T22:31:35.259Z,78.43
2022-09-30T22:34:24.373Z,71.47
2022-09-30T22:37:11.542Z,72.97
2022-09-30T22:39:39.271Z,69.72
2022-09-30T22:42:09.928Z,73.45
2022-09-30T22:44:39.995Z,64.07
2022-09-30T22:47:09.818Z,68.63
2022-09-30T22:49:37.733Z,64.22
2022-09-30T22:52:06.870Z,64.28
2022-09-30T22:54:38.342Z,62.25
2022-09-30T22:57:09.331Z,68.35
2022-09-30T22:59:37.506Z,70.28
2022-09-30T23:02:05.954Z,79.95
2022-09-30T23:04:34.171Z,87.05
2022-09-30T23:07:02.223Z,95.70
2022-09-30T23:09:31.349Z,94.97
2022-09-30T23:11:59.391Z,93.35
2022-09-30T23:14:27.437Z,104.00
2022-09-30T23:16:55.324Z,92.43
2022-09-30T23:19:23.031Z,109.68
2022-09-30T23:21:51.026Z,108.38
2022-09-30T23:24:18.846Z,87.95
2022-09-30T23:26:48.125Z,96.45
2022-09-30T23:29:16.820Z,90.55
2022-09-30T23:31:44.595Z,97.53
2022-09-30T23:34:13.345Z,97.68
2022-09-30T23:36:41.342Z,79.75
2022-09-30T23:39:18.672Z,80.20
2022-09-30T23:41:48.438Z,79.20
2022-09-30T23:44:19.945Z,86.18
2022-09-30T23:47:20.934Z,96.38
2022-09-30T23:49:48.831Z,87.68
2022-09-30T23:52:18.016Z,101.97
2022-09-30T23:54:45.794Z,93.75
2022-09-30T23:57:13.582Z,89.32
2022-09-30T23:59:41.601Z,146.63
